createdAt,value
2018-12-07T00:02:05.599Z,11.90
2018-12-07T00:04:34.067Z,8.75
2018-12-07T00:07:02.530Z,19.87
2018-12-07T00:09:30.997Z,10.58
2018-12-07T00:11:59.470Z,6.12
2018-12-07T00:14:27.932Z,7.20
2018-12-07T00:16:57.143Z,5.45
2018-12-07T00:19:25.746Z,3.70
2018-12-07T00:21:54.219Z,14.83
2018-12-07T00:24:22.707Z,8.28
2018-12-07T00:26:51.185Z,5.03
2018-12-07T00:29:19.656Z,7.87
2018-12-07T00:31:48.369Z,6.90
2018-12-07T00:34:16.826Z,7.00
2018-12-07T00:36:45.298Z,8.40
2018-12-07T00:39:14.333Z,9.10
2018-12-07T00:41:42.807Z,5.80
2018-12-07T00:44:11.284Z,5.37
2018-12-07T00:46:39.730Z,4.80
2018-12-07T00:49:08.213Z,7.67
2018-12-07T00:51:36.668Z,5.35
2018-12-07T00:54:05.155Z,8.30
2018-12-07T00:56:33.626Z,7.10
2018-12-07T00:59:02.092Z,6.67
2018-12-07T01:01:30.586Z,9.93
2018-12-07T01:03:59.045Z,5.70
2018-12-07T01:06:27.528Z,6.47
2018-12-07T01:08:56.089Z,7.35
2018-12-07T01:11:24.539Z,4.70
2018-12-07T01:13:53.026Z,10.08
2018-12-07T01:16:21.492Z,8.10
2018-12-07T01:18:49.963Z,6.15
2018-12-07T01:21:18.418Z,5.53
2018-12-07T01:23:46.890Z,11.08
2018-12-07T01:26:15.362Z,10.30
2018-12-07T01:28:43.835Z,7.90
2018-12-07T01:31:12.306Z,5.40
2018-12-07T01:33:40.774Z,7.85
2018-12-07T01:36:09.250Z,6.17
2018-12-07T01:38:37.779Z,4.62
2018-12-07T01:41:06.275Z,3.20
2018-12-07T01:43:34.738Z,4.20
2018-12-07T01:46:03.191Z,4.67
2018-12-07T01:48:31.796Z,8.88
2018-12-07T01:51:00.282Z,8.88
2018-12-07T01:53:28.743Z,7.28
2018-12-07T01:55:57.502Z,3.35
2018-12-07T01:58:26.389Z,4.67
2018-12-07T02:00:54.854Z,6.42
2018-12-07T02:03:23.318Z,3.65
2018-12-07T02:05:51.799Z,6.33
2018-12-07T02:08:20.254Z,2.30
2018-12-07T02:10:48.710Z,7.72
2018-12-07T02:13:17.179Z,4.20
2018-12-07T02:15:45.686Z,4.10
2018-12-07T02:18:14.150Z,2.92
2018-12-07T02:20:42.622Z,5.70
2018-12-07T02:23:11.399Z,3.42
2018-12-07T02:25:39.860Z,2.47
2018-12-07T02:28:08.310Z,4.00
2018-12-07T02:30:36.782Z,2.77
2018-12-07T02:33:05.271Z,1.62
2018-12-07T02:35:33.733Z,1.82
2018-12-07T02:38:02.199Z,4.20
2018-12-07T02:40:30.654Z,3.72
2018-12-07T02:42:59.106Z,4.30
2018-12-07T02:45:27.583Z,1.98
2018-12-07T02:47:56.042Z,1.50
2018-12-07T02:50:24.689Z,8.68
2018-12-07T02:52:53.159Z,6.40
2018-12-07T02:55:21.651Z,2.72
2018-12-07T02:57:50.127Z,2.10
2018-12-07T03:00:18.610Z,1.80
2018-12-07T03:02:47.105Z,8.83
2018-12-07T03:05:15.610Z,1.60
2018-12-07T03:07:44.123Z,3.87
2018-12-07T03:10:12.618Z,3.05
2018-12-07T03:12:41.091Z,2.60
2018-12-07T03:15:09.714Z,1.30
2018-12-07T03:17:38.315Z,1.40
2018-12-07T03:20:06.958Z,3.98
2018-12-07T03:22:35.991Z,1.62
2018-12-07T03:25:05.353Z,1.30
2018-12-07T03:27:33.831Z,10.35
2018-12-07T03:30:02.536Z,2.42
2018-12-07T03:32:31.698Z,2.00
2018-12-07T03:35:00.218Z,1.70
2018-12-07T03:37:28.756Z,2.70
2018-12-07T03:39:57.210Z,2.27
2018-12-07T03:42:25.683Z,1.60
2018-12-07T03:44:54.130Z,1.12
2018-12-07T03:47:22.583Z,1.62
2018-12-07T03:49:51.076Z,3.25
2018-12-07T03:52:19.526Z,1.20
2018-12-07T03:54:47.994Z,1.40
2018-12-07T03:57:16.470Z,1.20
2018-12-07T03:59:44.954Z,1.20
2018-12-07T04:02:13.435Z,0.80
2018-12-07T04:04:41.900Z,0.80
2018-12-07T04:07:10.377Z,0.70
2018-12-07T04:09:38.834Z,0.90
2018-12-07T04:12:07.291Z,0.85
2018-12-07T04:14:35.906Z,2.25
2018-12-07T04:17:04.385Z,0.70
2018-12-07T04:19:32.839Z,0.80
2018-12-07T04:22:01.295Z,3.08
2018-12-07T04:24:29.777Z,1.00
2018-12-07T04:26:58.262Z,4.30
2018-12-07T04:29:26.752Z,5.22
2018-12-07T04:31:55.479Z,2.10
2018-12-07T04:34:23.950Z,7.95
2018-12-07T04:36:52.411Z,2.22
2018-12-07T04:39:20.878Z,8.28
2018-12-07T04:41:49.339Z,7.20
2018-12-07T04:44:17.792Z,3.30
2018-12-07T04:46:46.263Z,2.00
2018-12-07T04:49:14.740Z,5.33
2018-12-07T04:51:43.195Z,1.45
2018-12-07T04:54:11.658Z,1.95
2018-12-07T04:56:40.143Z,2.98
2018-12-07T04:59:08.604Z,4.00
2018-12-07T05:01:37.064Z,8.60
2018-12-07T05:04:05.539Z,3.67
2018-12-07T05:06:34.006Z,3.65
2018-12-07T05:09:02.942Z,4.42
2018-12-07T05:11:31.408Z,4.40
2018-12-07T05:13:59.867Z,6.47
2018-12-07T05:16:28.327Z,3.40
2018-12-07T05:18:56.790Z,4.20
2018-12-07T05:21:25.267Z,1.90
2018-12-07T05:23:53.769Z,3.77
2018-12-07T05:26:22.258Z,1.80
2018-12-07T05:28:50.706Z,2.17
2018-12-07T05:31:19.174Z,9.83
2018-12-07T05:33:47.854Z,11.38
2018-12-07T05:36:16.314Z,3.72
2018-12-07T05:38:44.778Z,4.33
2018-12-07T05:41:13.270Z,5.62
2018-12-07T05:43:57.963Z,2.75
2018-12-07T05:46:26.564Z,2.05
2018-12-07T05:48:55.022Z,2.45
2018-12-07T05:51:23.490Z,3.95
2018-12-07T05:53:51.974Z,5.45
2018-12-07T05:56:20.443Z,7.87
2018-12-07T05:58:48.911Z,3.55
2018-12-07T06:01:17.371Z,2.15
2018-12-07T06:03:45.847Z,2.00
2018-12-07T06:06:14.414Z,2.60
2018-12-07T06:08:42.872Z,3.37
2018-12-07T06:11:11.331Z,2.72
2018-12-07T06:13:39.803Z,1.90
2018-12-07T06:16:08.277Z,7.75
2018-12-07T06:18:36.746Z,10.20
2018-12-07T06:21:05.222Z,4.78
2018-12-07T06:23:34.318Z,3.35
2018-12-07T06:26:02.862Z,11.65
2018-12-07T06:28:31.473Z,4.17
2018-12-07T06:30:59.942Z,7.75
2018-12-07T06:33:28.430Z,6.83
2018-12-07T06:35:56.917Z,3.52
2018-12-07T06:38:25.966Z,3.80
2018-12-07T06:40:54.472Z,5.03
2018-12-07T06:43:22.950Z,3.27
2018-12-07T06:45:51.410Z,3.80
2018-12-07T06:48:19.877Z,7.75
2018-12-07T06:50:48.346Z,4.95
2018-12-07T06:53:16.814Z,5.50
2018-12-07T06:55:45.282Z,3.45
2018-12-07T06:58:13.752Z,3.70
2018-12-07T07:00:42.222Z,2.20
2018-12-07T07:03:10.688Z,5.72
2018-12-07T07:05:39.164Z,4.12
2018-12-07T07:08:07.648Z,3.40
2018-12-07T07:10:36.146Z,5.15
2018-12-07T07:13:04.627Z,2.90
2018-12-07T07:15:33.105Z,5.70
2018-12-07T07:18:01.563Z,5.97
2018-12-07T07:20:30.039Z,6.12
2018-12-07T07:22:58.507Z,5.47
2018-12-07T07:25:26.967Z,7.05
2018-12-07T07:27:55.454Z,4.15
2018-12-07T07:30:23.932Z,3.83
2018-12-07T07:32:52.402Z,4.37
2018-12-07T07:35:20.866Z,4.15
2018-12-07T07:37:49.328Z,3.98
2018-12-07T07:40:17.785Z,11.65
2018-12-07T07:42:46.316Z,12.82
2018-12-07T07:45:14.802Z,16.23
2018-12-07T07:47:43.260Z,9.23
2018-12-07T07:50:11.748Z,13.00
2018-12-07T07:52:40.239Z,13.70
2018-12-07T07:55:08.850Z,10.95
2018-12-07T07:57:37.323Z,16.17
2018-12-07T08:00:07.321Z,37.10
2018-12-07T08:02:35.790Z,16.48
2018-12-07T08:05:04.821Z,12.75
2018-12-07T08:07:33.303Z,14.87
2018-12-07T08:10:01.760Z,5.30
2018-12-07T08:12:30.227Z,3.98
2018-12-07T08:14:58.686Z,5.90
2018-12-07T08:17:27.146Z,7.15
2018-12-07T08:19:55.623Z,7.42
2018-12-07T08:22:24.103Z,12.93
2018-12-07T08:24:52.590Z,10.05
2018-12-07T08:27:21.064Z,15.95
2018-12-07T08:29:49.538Z,19.60
2018-12-07T08:32:18.012Z,46.42
2018-12-07T08:34:46.499Z,27.48
2018-12-07T08:37:14.979Z,15.68
2018-12-07T08:39:43.451Z,15.85
2018-12-07T08:42:12.058Z,7.85
2018-12-07T08:44:40.947Z,22.02
2018-12-07T08:47:09.414Z,20.40
2018-12-07T08:49:43.271Z,21.27
2018-12-07T08:52:11.741Z,22.10
2018-12-07T08:54:40.242Z,23.60
2018-12-07T08:57:08.722Z,6.92
2018-12-07T08:59:37.195Z,6.80
2018-12-07T09:02:05.987Z,5.10
2018-12-07T09:04:34.453Z,10.58
2018-12-07T09:07:03.042Z,6.78
2018-12-07T09:09:33.538Z,8.43
2018-12-07T09:12:02.019Z,16.67
2018-12-07T09:14:30.478Z,8.68
2018-12-07T09:16:58.958Z,7.12
2018-12-07T09:19:27.449Z,6.95
2018-12-07T09:21:55.903Z,17.82
2018-12-07T09:24:24.387Z,13.75
2018-12-07T09:26:52.875Z,12.15
2018-12-07T09:29:21.338Z,11.43
2018-12-07T09:31:49.819Z,5.92
2018-12-07T09:34:18.274Z,4.03
2018-12-07T09:36:46.872Z,7.78
2018-12-07T09:39:15.402Z,7.80
2018-12-07T09:41:43.890Z,10.98
2018-12-07T09:44:12.349Z,7.90
2018-12-07T09:46:40.837Z,14.90
2018-12-07T09:49:09.294Z,12.55
2018-12-07T09:51:37.758Z,9.33
2018-12-07T09:54:06.223Z,6.40
2018-12-07T09:56:34.735Z,7.65
2018-12-07T09:59:03.210Z,6.83
2018-12-07T10:01:31.829Z,9.65
2018-12-07T10:04:00.307Z,17.92
2018-12-07T10:06:28.771Z,10.68
2018-12-07T10:08:57.234Z,10.90
2018-12-07T10:11:25.710Z,13.15
2018-12-07T10:13:54.166Z,9.13
2018-12-07T10:16:22.626Z,11.33
2018-12-07T10:18:51.082Z,9.20
2018-12-07T10:21:19.842Z,6.87
2018-12-07T10:23:48.310Z,7.30
2018-12-07T10:26:16.768Z,12.33
2018-12-07T10:28:45.230Z,12.13
2018-12-07T10:31:13.708Z,12.35
2018-12-07T10:33:42.182Z,11.85
2018-12-07T10:36:10.646Z,14.38
2018-12-07T10:38:39.110Z,12.43
2018-12-07T10:41:07.574Z,16.00
2018-12-07T10:43:36.046Z,11.85
2018-12-07T10:46:04.527Z,13.08
2018-12-07T10:48:32.987Z,13.62
2018-12-07T10:51:07.766Z,10.35
2018-12-07T10:53:31.951Z,9.58
2018-12-07T10:56:00.417Z,7.72
2018-12-07T10:58:28.878Z,6.25
2018-12-07T11:01:02.498Z,19.55
2018-12-07T11:03:36.219Z,9.43
2018-12-07T11:06:12.774Z,12.82
2018-12-07T11:08:46.812Z,16.93
2018-12-07T11:11:20.428Z,10.32
2018-12-07T11:16:00.780Z,13.32
2018-12-07T11:18:34.422Z,7.70
2018-12-07T11:21:08.066Z,12.07
2018-12-07T11:23:41.863Z,12.20
2018-12-07T11:26:15.686Z,9.88
2018-12-07T11:28:49.422Z,8.03
2018-12-07T11:31:23.014Z,8.80
2018-12-07T11:34:06.818Z,9.43
2018-12-07T11:36:35.306Z,7.65
2018-12-07T11:39:07.134Z,13.22
2018-12-07T11:41:35.594Z,10.10
2018-12-07T11:44:04.104Z,19.50
2018-12-07T11:46:32.570Z,23.07
2018-12-07T11:49:01.034Z,7.12
2018-12-07T11:51:29.518Z,11.12
2018-12-07T11:53:57.978Z,15.25
2018-12-07T11:56:26.476Z,8.38
2018-12-07T11:58:55.058Z,6.30
2018-12-07T12:01:23.534Z,5.22
2018-12-07T12:03:51.998Z,10.35
2018-12-07T12:06:20.471Z,7.72
2018-12-07T12:08:48.951Z,6.30
2018-12-07T12:11:17.399Z,8.50
2018-12-07T12:13:45.858Z,5.17
2018-12-07T12:16:14.322Z,21.37
2018-12-07T12:18:42.790Z,8.40
2018-12-07T12:21:11.269Z,7.95
2018-12-07T12:23:39.734Z,20.02
2018-12-07T12:26:08.198Z,9.65
2018-12-07T12:28:36.669Z,9.03
2018-12-07T12:31:05.136Z,11.35
2018-12-07T12:33:33.606Z,7.33
2018-12-07T12:36:02.194Z,6.40
2018-12-07T12:38:30.680Z,7.22
2018-12-07T12:40:59.130Z,6.67
2018-12-07T12:43:27.598Z,9.28
2018-12-07T12:45:56.067Z,11.85
2018-12-07T12:48:24.519Z,8.10
2018-12-07T12:50:55.146Z,7.08
2018-12-07T12:53:23.608Z,8.70
2018-12-07T12:55:52.079Z,5.65
2018-12-07T12:58:20.619Z,4.22
2018-12-07T13:00:49.097Z,4.40
2018-12-07T13:03:17.563Z,7.00
2018-12-07T13:05:46.038Z,6.58
2018-12-07T13:08:14.513Z,4.67
2018-12-07T13:10:42.979Z,3.30
2018-12-07T13:13:11.436Z,4.87
2018-12-07T13:15:40.134Z,6.20
2018-12-07T13:18:08.598Z,5.10
2018-12-07T13:20:37.071Z,7.10
2018-12-07T13:23:05.551Z,5.17
2018-12-07T13:25:34.024Z,9.63
2018-12-07T13:28:02.489Z,8.10
2018-12-07T13:30:30.979Z,22.55
2018-12-07T13:32:59.778Z,9.95
2018-12-07T13:35:28.331Z,15.75
2018-12-07T13:37:56.852Z,11.57
2018-12-07T13:40:25.561Z,9.53
2018-12-07T13:42:54.474Z,13.15
2018-12-07T13:45:23.103Z,9.28
2018-12-07T13:47:51.873Z,10.43
2018-12-07T13:50:26.281Z,9.45
2018-12-07T13:52:55.039Z,9.10
2018-12-07T13:55:24.208Z,27.32
2018-12-07T13:57:53.073Z,32.67
2018-12-07T14:00:21.611Z,5.80
2018-12-07T14:02:50.092Z,23.05
2018-12-07T14:05:19.163Z,16.80
2018-12-07T14:07:47.930Z,8.58
2018-12-07T14:10:16.541Z,10.70
2018-12-07T14:12:45.098Z,13.22
2018-12-07T14:15:13.814Z,40.43
2018-12-07T14:17:42.414Z,29.35
2018-12-07T14:20:10.987Z,7.67
2018-12-07T14:22:39.649Z,12.70
2018-12-07T14:25:08.719Z,15.13
2018-12-07T14:27:37.844Z,13.32
2018-12-07T14:30:08.947Z,42.10
2018-12-07T14:32:37.614Z,30.97
2018-12-07T14:35:07.450Z,31.33
2018-12-07T14:37:36.097Z,34.80
2018-12-07T14:40:06.787Z,22.30
2018-12-07T14:42:36.334Z,14.03
2018-12-07T14:45:06.641Z,11.35
2018-12-07T14:47:35.604Z,36.10
2018-12-07T14:50:05.003Z,38.20
2018-12-07T14:52:33.541Z,9.18
2018-12-07T14:55:02.209Z,16.97
2018-12-07T14:57:30.759Z,13.13
2018-12-07T14:59:59.423Z,12.53
2018-12-07T15:02:28.309Z,11.28
2018-12-07T15:04:56.889Z,39.50
2018-12-07T15:07:25.543Z,66.20
2018-12-07T15:09:54.661Z,74.05
2018-12-07T15:12:23.395Z,25.02
2018-12-07T15:14:52.212Z,17.07
2018-12-07T15:17:20.893Z,7.22
2018-12-07T15:19:49.699Z,14.13
2018-12-07T15:22:18.587Z,9.25
2018-12-07T15:24:47.767Z,11.28
2018-12-07T15:27:16.446Z,5.47
2018-12-07T15:29:45.313Z,5.10
2018-12-07T15:32:13.822Z,7.20
2018-12-07T15:34:42.392Z,6.72
2018-12-07T15:37:10.894Z,6.10
2018-12-07T15:39:39.388Z,7.03
2018-12-07T15:42:07.912Z,8.80
2018-12-07T15:44:36.498Z,50.05
2018-12-07T15:47:05.425Z,27.58
2018-12-07T15:49:34.109Z,15.50
2018-12-07T15:52:02.878Z,6.92
2018-12-07T15:54:31.684Z,36.50
2018-12-07T15:57:00.239Z,11.18
2018-12-07T15:59:34.521Z,10.23
2018-12-07T16:01:59.444Z,8.90
2018-12-07T16:04:28.248Z,6.40
2018-12-07T16:06:56.787Z,5.03
2018-12-07T16:09:25.351Z,4.22
2018-12-07T16:11:53.965Z,6.15
2018-12-07T16:14:22.497Z,7.00
2018-12-07T16:16:51.218Z,8.90
2018-12-07T16:19:19.980Z,11.30
2018-12-07T16:21:48.811Z,5.67
2018-12-07T16:24:17.421Z,5.67
2018-12-07T16:26:46.005Z,11.75
2018-12-07T16:29:14.847Z,9.95
2018-12-07T16:31:43.983Z,7.45
2018-12-07T16:34:12.940Z,5.03
2018-12-07T16:36:41.545Z,8.13
2018-12-07T16:39:10.082Z,7.15
2018-12-07T16:41:38.571Z,9.83
2018-12-07T16:44:07.514Z,6.25
2018-12-07T16:46:36.528Z,6.58
2018-12-07T16:49:05.707Z,9.38
2018-12-07T16:51:34.794Z,7.17
2018-12-07T16:54:03.967Z,8.05
2018-12-07T16:56:32.722Z,6.75
2018-12-07T16:59:01.322Z,4.72
2018-12-07T17:01:30.156Z,9.10
2018-12-07T17:03:58.876Z,5.33
2018-12-07T17:06:27.486Z,5.65
2018-12-07T17:08:56.017Z,7.65
2018-12-07T17:11:25.077Z,7.33
2018-12-07T17:13:54.132Z,12.30
2018-12-07T17:16:23.003Z,6.35
2018-12-07T17:18:51.492Z,7.55
2018-12-07T17:21:20.190Z,4.20
2018-12-07T17:23:48.712Z,4.22
2018-12-07T17:26:17.264Z,4.50
2018-12-07T17:28:45.748Z,4.42
2018-12-07T17:31:14.433Z,5.50
2018-12-07T17:33:43.057Z,4.97
2018-12-07T17:36:11.634Z,6.35
2018-12-07T17:38:40.161Z,4.25
2018-12-07T17:41:08.628Z,4.95
2018-12-07T17:43:37.222Z,3.98
2018-12-07T17:46:06.210Z,4.17
2018-12-07T17:48:35.319Z,3.50
2018-12-07T17:51:04.061Z,8.65
2018-12-07T17:53:32.537Z,3.67
2018-12-07T17:56:01.166Z,4.35
2018-12-07T17:58:29.996Z,3.55
2018-12-07T18:00:58.566Z,4.37
2018-12-07T18:03:27.034Z,4.10
2018-12-07T18:05:55.517Z,5.35
2018-12-07T18:08:24.159Z,8.88
2018-12-07T18:10:52.858Z,6.30
2018-12-07T18:13:21.960Z,6.53
2018-12-07T18:15:50.653Z,8.63
2018-12-07T18:18:19.445Z,4.55
2018-12-07T18:20:48.010Z,5.35
2018-12-07T18:23:16.572Z,52.43
2018-12-07T18:25:45.122Z,14.60
2018-12-07T18:28:13.782Z,10.80
2018-12-07T18:30:42.352Z,12.15
2018-12-07T18:33:11.129Z,18.40
2018-12-07T18:35:39.915Z,10.35
2018-12-07T18:38:09.062Z,9.20
2018-12-07T18:40:37.680Z,12.00
2018-12-07T18:43:06.230Z,7.42
2018-12-07T18:45:34.997Z,13.50
2018-12-07T18:48:03.785Z,9.90
2018-12-07T18:50:32.394Z,6.85
2018-12-07T18:53:00.871Z,6.75
2018-12-07T18:55:29.331Z,6.33
2018-12-07T18:57:58.224Z,6.40
2018-12-07T19:00:27.101Z,7.12
2018-12-07T19:02:55.758Z,6.80
2018-12-07T19:05:24.442Z,6.20
2018-12-07T19:07:53.038Z,7.35
2018-12-07T19:10:21.823Z,6.90
2018-12-07T19:12:50.734Z,8.98
2018-12-07T19:15:19.406Z,8.48
2018-12-07T19:17:47.874Z,7.25
2018-12-07T19:20:16.548Z,8.50
2018-12-07T19:22:45.041Z,8.68
2018-12-07T19:25:13.758Z,12.55
2018-12-07T19:27:42.294Z,16.85
2018-12-07T19:30:14.830Z,7.62
2018-12-07T19:32:42.137Z,7.50
2018-12-07T19:35:10.892Z,9.03
2018-12-07T19:37:39.537Z,12.37
2018-12-07T19:40:08.358Z,8.65
2018-12-07T19:42:36.903Z,8.53
2018-12-07T19:45:06.718Z,10.80
2018-12-07T19:47:35.269Z,12.68
2018-12-07T19:50:04.154Z,15.80
2018-12-07T19:52:33.031Z,12.40
2018-12-07T19:55:01.786Z,15.18
2018-12-07T19:57:30.533Z,13.25
2018-12-07T19:59:59.136Z,9.78
2018-12-07T20:02:27.621Z,11.48
2018-12-07T20:04:56.336Z,16.00
2018-12-07T20:07:24.871Z,12.03
2018-12-07T20:09:53.457Z,14.23
2018-12-07T20:12:22.048Z,16.85
2018-12-07T20:14:50.750Z,22.70
2018-12-07T20:17:19.489Z,18.62
2018-12-07T20:19:48.044Z,13.25
2018-12-07T20:22:16.829Z,23.57
2018-12-07T20:24:45.660Z,22.05
2018-12-07T20:27:14.420Z,19.02
2018-12-07T20:29:42.949Z,11.38
2018-12-07T20:32:11.504Z,14.28
2018-12-07T20:34:40.275Z,11.65
2018-12-07T20:37:09.109Z,13.38
2018-12-07T20:39:37.771Z,20.85
2018-12-07T20:42:06.397Z,22.60
2018-12-07T20:44:35.051Z,13.93
2018-12-07T20:47:03.926Z,8.78
2018-12-07T20:49:32.773Z,11.20
2018-12-07T20:52:02.350Z,12.35
2018-12-07T20:54:31.129Z,11.43
2018-12-07T20:56:59.813Z,12.90
2018-12-07T20:59:28.619Z,10.50
2018-12-07T21:01:57.305Z,10.63
2018-12-07T21:04:32.026Z,12.47
2018-12-07T21:08:11.708Z,8.05
2018-12-07T21:11:05.298Z,9.95
2018-12-07T21:13:45.235Z,8.65
2018-12-07T21:17:33.348Z,11.48
2018-12-07T21:20:13.322Z,5.15
2018-12-07T21:22:42.152Z,13.95
2018-12-07T21:25:10.760Z,9.45
2018-12-07T21:27:39.403Z,16.42
2018-12-07T21:33:09.157Z,8.33
2018-12-07T21:36:30.626Z,9.75
2018-12-07T21:38:59.204Z,7.00
2018-12-07T21:41:28.213Z,6.20
2018-12-07T21:43:57.279Z,9.23
2018-12-07T21:46:25.926Z,8.98
2018-12-07T21:48:54.646Z,9.80
2018-12-07T21:51:33.875Z,6.80
2018-12-07T21:54:02.693Z,5.70
2018-12-07T21:56:31.723Z,6.97
2018-12-07T21:59:00.351Z,5.17
2018-12-07T22:01:29.161Z,9.00
2018-12-07T22:03:58.059Z,20.82
2018-12-07T22:06:26.757Z,25.55
2018-12-07T22:08:55.970Z,13.95
2018-12-07T22:11:24.546Z,20.05
2018-12-07T22:13:53.064Z,11.35
2018-12-07T22:16:21.597Z,10.30
2018-12-07T22:18:50.186Z,9.73
2018-12-07T22:21:18.907Z,11.43
2018-12-07T22:23:48.041Z,10.78
2018-12-07T22:26:16.525Z,11.75
2018-12-07T22:28:45.147Z,6.97
2018-12-07T22:31:13.967Z,7.80
2018-12-07T22:33:42.669Z,9.33
2018-12-07T22:36:11.237Z,10.40
2018-12-07T22:38:40.282Z,9.93
2018-12-07T22:41:08.822Z,11.43
2018-12-07T22:43:37.449Z,11.90
2018-12-07T22:46:05.930Z,12.80
2018-12-07T22:48:34.475Z,12.45
2018-12-07T22:51:02.970Z,9.93
2018-12-07T22:53:31.430Z,10.65
2018-12-07T22:56:00.029Z,10.95
2018-12-07T22:58:28.490Z,13.53
2018-12-07T23:00:57.087Z,13.65
2018-12-07T23:03:25.541Z,11.57
2018-12-07T23:05:54.001Z,20.95
2018-12-07T23:08:22.466Z,18.52
2018-12-07T23:10:50.994Z,18.60
2018-12-07T23:13:19.468Z,19.32
2018-12-07T23:15:47.922Z,20.15
2018-12-07T23:18:16.390Z,20.48
2018-12-07T23:20:44.879Z,13.55
2018-12-07T23:23:13.350Z,22.02
2018-12-07T23:25:41.930Z,18.20
2018-12-07T23:28:10.390Z,13.95
2018-12-07T23:30:38.850Z,14.40
2018-12-07T23:33:07.313Z,17.77
2018-12-07T23:35:35.793Z,14.05
2018-12-07T23:38:04.346Z,12.88
2018-12-07T23:40:32.806Z,13.35
2018-12-07T23:43:02.558Z,16.55
2018-12-07T23:45:31.020Z,19.25
2018-12-07T23:47:59.497Z,27.00
2018-12-07T23:50:27.954Z,32.35
2018-12-07T23:52:56.420Z,15.78
2018-12-07T23:55:24.885Z,15.90
2018-12-07T23:57:53.339Z,15.55
